Time;durP1;ratioP1;P1;durP2;ratioP2;P2;SDS_P1;SDS_P2;PMS_P1;PMS_P2;Temp;Humidity;BMP_temperature;BMP_pressure;BME280_temperature;BME280_humidity;BME280_pressure;Samples;Min_cycle;Max_cycle;Signal;HPM_P1;HPM_P2
2022/06/25 00:05:49;;;;;;;29.95;13.23;;;;;;;19.05;58.39;99655.47;4921115;29;20052;-91
2022/06/25 00:08:21;;;;;;;33.33;14.52;;;;;;;18.81;59.01;99623.28;4925012;29;20036;-95
2022/06/25 00:17:48;;;;;;;36.03;14.13;;;;;;;18.88;58.71;99656.69;4906407;29;20045;-90
2022/06/25 00:20:15;;;;;;;45.83;14.70;;;;;;;18.63;58.68;99622.03;4880989;29;20641;-91
2022/06/25 00:23:07;;;;;;;35.05;15.35;;;;;;;19.18;59.03;99708.81;4966329;22;20054;-93
2022/06/25 00:25:33;;;;;;;38.63;15.20;;;;;;;18.78;59.56;99660.00;4997424;28;20061;-90
2022/06/25 00:28:09;;;;;;;35.40;14.55;;;;;;;18.50;59.36;99605.50;5003523;28;20569;-91
2022/06/25 00:30:37;;;;;;;34.50;15.33;;;;;;;18.52;59.81;99622.56;5016706;28;20186;-93
2022/06/25 00:33:03;;;;;;;52.30;16.52;;;;;;;18.89;59.62;99685.97;5002331;28;20088;-91
2022/06/25 00:35:38;;;;;;;41.38;15.25;;;;;;;19.11;58.88;99719.75;5004976;22;20057;-92
2022/06/25 00:38:04;;;;;;;37.78;14.88;;;;;;;18.76;59.19;99670.63;4978337;23;20053;-94
2022/06/25 00:40:30;;;;;;;46.90;15.55;;;;;;;18.92;58.71;99690.00;5002865;23;20054;-94
2022/06/25 00:42:57;;;;;;;45.55;15.25;;;;;;;18.90;58.60;99697.84;4975465;23;20061;-92
2022/06/25 00:49:45;;;;;;;46.22;15.57;;;;;;;19.17;59.43;99737.69;4968222;28;20049;-96
2022/06/25 00:52:31;;;;;;;55.20;16.73;;;;;;;19.01;58.42;99710.00;4970097;28;20046;-91
2022/06/25 00:55:10;;;;;;;64.60;16.50;;;;;;;18.78;59.12;99669.13;4980715;28;20095;-96
2022/06/25 01:00:19;;;;;;;35.67;16.25;;;;;;;19.12;57.65;99715.81;4996476;28;20643;-91
2022/06/25 01:02:47;;;;;;;40.78;16.08;;;;;;;19.48;57.17;99754.25;5014901;23;20080;-91
2022/06/25 01:05:15;;;;;;;41.30;16.38;;;;;;;19.06;57.21;99684.00;5010906;22;20091;-92
2022/06/25 01:07:57;;;;;;;34.63;16.13;;;;;;;19.47;56.56;99726.91;5022707;28;20129;-91
2022/06/25 01:10:38;;;;;;;34.67;15.30;;;;;;;19.43;56.11;99701.84;5000063;28;20049;-92
2022/06/25 01:16:11;;;;;;;39.03;16.92;;;;;;;19.64;55.22;99728.47;5056423;28;20071;-92
2022/06/25 01:23:38;;;;;;;42.85;16.52;;;;;;;19.88;55.02;99744.03;5055822;28;20033;-92
2022/06/25 01:34:46;;;;;;;38.00;16.10;;;;;;;20.16;55.90;99777.91;5053432;28;20496;-93
2022/06/25 01:37:38;;;;;;;33.70;16.00;;;;;;;20.20;55.52;99794.66;5022509;28;20075;-91
2022/06/25 01:40:33;;;;;;;42.15;17.30;;;;;;;20.18;55.23;99794.19;5034895;28;20044;-91
2022/06/25 01:43:02;;;;;;;49.03;17.17;;;;;;;19.56;55.76;99707.25;5030589;28;20467;-92
2022/06/25 01:46:25;;;;;;;40.15;16.58;;;;;;;20.14;57.01;99791.34;5039771;28;20044;-95
2022/06/25 01:49:56;;;;;;;45.63;17.30;;;;;;;20.15;56.91;99789.38;5022090;28;20033;-92
2022/06/25 01:53:17;;;;;;;37.58;17.83;;;;;;;20.12;57.22;99795.66;5052036;28;20040;-92
2022/06/25 02:02:28;;;;;;;69.53;18.77;;;;;;;19.69;56.46;99739.25;5002650;28;20056;-92
2022/06/25 02:04:55;;;;;;;56.95;19.20;;;;;;;20.13;56.12;99798.09;5012393;23;20116;-91
2022/06/25 02:07:21;;;;;;;41.30;17.95;;;;;;;19.99;56.46;99772.00;4962056;28;20165;-91
2022/06/25 02:10:17;;;;;;;43.33;19.17;;;;;;;20.23;56.13;99795.84;4971661;28;20107;-92
2022/06/25 02:16:54;;;;;;;38.08;19.35;;;;;;;19.91;56.90;99741.31;5034182;23;20053;-92
2022/06/25 02:19:20;;;;;;;41.78;20.13;;;;;;;20.28;57.59;99804.72;5001881;23;20451;-93
2022/06/25 02:21:56;;;;;;;41.67;20.25;;;;;;;19.69;57.61;99706.78;4979595;28;20037;-93
2022/06/25 02:24:26;;;;;;;82.00;22.45;;;;;;;19.62;57.81;99689.16;4997645;28;20047;-91
2022/06/25 02:27:18;;;;;;;64.47;20.48;;;;;;;20.28;57.22;99790.03;4981951;28;20038;-94
2022/06/25 02:29:50;;;;;;;60.90;19.50;;;;;;;19.77;57.21;99710.53;4995159;28;20511;-94
2022/06/25 02:36:01;;;;;;;53.70;19.02;;;;;;;20.24;57.54;99773.31;5033216;28;20033;-93
2022/06/25 02:39:30;;;;;;;60.35;20.10;;;;;;;20.46;58.16;99790.34;5018686;28;20050;-92
2022/06/25 02:46:34;;;;;;;54.28;20.55;;;;;;;20.56;54.65;99792.56;4919155;29;20056;-91
2022/06/25 02:53:13;;;;;;;50.63;19.67;;;;;;;20.41;54.32;99760.94;5018530;28;20145;-91
2022/06/25 02:59:32;;;;;;;41.20;19.85;;;;;;;20.47;54.22;99770.56;5101459;22;20493;-92
2022/06/25 03:05:48;;;;;;;42.55;19.10;;;;;;;20.84;54.59;99815.31;5085081;23;20498;-92
2022/06/25 03:08:15;;;;;;;42.60;18.10;;;;;;;20.62;54.19;99783.56;5035385;28;20045;-93
2022/06/25 03:11:19;;;;;;;41.67;19.55;;;;;;;20.94;54.58;99818.66;5119963;23;20057;-92
2022/06/25 03:14:59;;;;;;;47.85;21.23;;;;;;;21.00;54.56;99817.97;5036484;23;20110;-93
2022/06/25 03:18:15;;;;;;;59.00;21.70;;;;;;;21.09;55.06;99823.28;5007868;28;20045;-96
2022/06/25 03:21:01;;;;;;;47.08;19.20;;;;;;;21.07;54.74;99822.84;5102781;23;20498;-94
2022/06/25 03:24:29;;;;;;;68.38;21.55;;;;;;;21.16;54.24;99828.97;5005960;28;20490;-96
2022/06/25 03:27:36;;;;;;;44.25;19.42;;;;;;;21.21;54.23;99839.75;5011588;23;20148;-91
2022/06/25 03:30:32;;;;;;;51.95;20.52;;;;;;;21.26;54.51;99836.69;5021601;23;20428;-92
2022/06/25 03:33:31;;;;;;;51.53;21.00;;;;;;;21.05;54.22;99789.84;5010920;23;20057;-93
2022/06/25 03:36:35;;;;;;;55.85;20.67;;;;;;;20.91;53.98;99764.63;4955167;28;20054;-92
2022/06/25 03:39:46;;;;;;;66.35;22.27;;;;;;;21.17;53.81;99805.53;4965438;23;20130;-92
2022/06/25 03:42:50;;;;;;;57.42;21.63;;;;;;;21.51;53.87;99847.44;4906506;29;20044;-91
2022/06/25 03:45:39;;;;;;;42.00;19.75;;;;;;;21.54;54.09;99843.91;4908916;23;20064;-94
2022/06/25 03:48:06;;;;;;;60.65;20.27;;;;;;;21.21;53.33;99794.47;4928824;29;20054;-92
2022/06/25 03:51:07;;;;;;;122.22;23.20;;;;;;;21.08;53.84;99763.28;4945026;23;20061;-92
2022/06/25 03:53:34;;;;;;;74.45;22.25;;;;;;;21.21;54.11;99770.25;4924671;29;20043;-93
2022/06/25 03:56:00;;;;;;;46.47;20.42;;;;;;;21.50;52.99;99809.66;4926064;29;20043;-92
2022/06/25 03:58:33;;;;;;;91.20;22.63;;;;;;;21.34;53.71;99771.69;4926215;29;20039;-92
2022/06/25 04:01:04;;;;;;;58.20;20.10;;;;;;;21.79;52.91;99847.06;4925506;29;20421;-92
2022/06/25 04:04:11;;;;;;;50.50;19.08;;;;;;;21.98;53.86;99862.81;4929200;29;20039;-92
2022/06/25 04:06:37;;;;;;;126.60;23.25;;;;;;;21.63;53.74;99799.13;4908923;29;20051;-93
2022/06/25 04:09:04;;;;;;;44.28;17.83;;;;;;;21.79;52.37;99810.88;4939234;23;20065;-94
2022/06/25 04:11:56;;;;;;;74.15;19.92;;;;;;;22.21;52.49;99862.75;4958113;23;20050;-92
2022/06/25 04:19:24;;;;;;;58.58;17.95;;;;;;;21.80;51.74;99787.44;4985454;23;20061;-89
2022/06/25 04:22:00;;;;;;;52.47;18.65;;;;;;;22.43;52.01;99869.41;4950795;23;20060;-92
2022/06/25 04:24:51;;;;;;;54.15;17.75;;;;;;;22.49;51.80;99868.69;4948101;23;20047;-91
2022/06/25 04:31:27;;;;;;;55.58;17.25;;;;;;;22.16;51.28;99793.50;4957760;23;20083;-94
2022/06/25 04:37:51;;;;;;;63.17;18.40;;;;;;;22.27;51.83;99781.28;4957270;29;20576;-91
2022/06/25 04:44:03;;;;;;;63.65;18.88;;;;;;;23.00;50.02;99878.41;5115877;23;20074;-93
2022/06/25 04:47:15;;;;;;;61.65;18.42;;;;;;;23.02;50.91;99872.47;4939812;23;20111;-93
2022/06/25 04:50:18;;;;;;;67.32;18.48;;;;;;;23.10;51.72;99874.13;4978514;23;20051;-92
2022/06/25 04:52:48;;;;;;;71.28;19.05;;;;;;;22.64;49.58;99793.59;4929089;23;20525;-94
2022/06/25 05:02:53;;;;;;;51.95;17.27;;;;;;;22.89;48.33;99803.00;4910321;23;20056;-92
2022/06/25 05:06:06;;;;;;;117.22;21.55;;;;;;;23.50;49.91;99894.81;4884132;29;20780;-95
2022/06/25 05:11:29;;;;;;;70.70;18.67;;;;;;;23.23;49.13;99833.59;4938790;29;20395;-92
2022/06/25 05:26:39;;;;;;;57.67;18.83;;;;;;;23.95;47.70;99892.78;4936275;23;20058;-96
2022/06/25 05:29:42;;;;;;;62.97;17.40;;;;;;;23.99;48.14;99897.19;4981564;23;20052;-93
2022/06/25 05:32:46;;;;;;;50.92;17.83;;;;;;;24.05;48.06;99898.41;4899859;23;20088;-95
2022/06/25 05:36:06;;;;;;;42.85;18.08;;;;;;;24.08;45.98;99900.44;4955633;23;20039;-93
2022/06/25 05:38:47;;;;;;;50.15;18.65;;;;;;;24.14;46.94;99904.47;4953758;23;20159;-91
2022/06/25 05:45:49;;;;;;;41.47;17.73;;;;;;;24.22;47.16;99904.50;4954856;23;20062;-91
2022/06/25 05:48:43;;;;;;;162.93;27.85;;;;;;;24.23;47.07;99889.34;4914401;29;20047;-91
2022/06/25 05:51:57;;;;;;;51.05;19.77;;;;;;;24.39;46.09;99906.56;4931745;23;20078;-96
2022/06/25 05:57:58;;;;;;;58.42;20.08;;;;;;;24.47;45.54;99910.22;4953804;23;20579;-91
2022/06/25 06:09:09;;;;;;;63.50;18.88;;;;;;;24.72;45.20;99913.13;4935910;23;20325;-96
2022/06/25 06:16:45;;;;;;;168.70;25.67;;;;;;;24.77;44.32;99899.56;4972424;28;20124;-92
2022/06/25 06:19:14;;;;;;;69.35;20.13;;;;;;;24.51;42.89;99858.75;4917589;23;20447;-92
2022/06/25 06:21:41;;;;;;;83.15;18.77;;;;;;;24.33;43.82;99819.50;5027009;23;20055;-91
2022/06/25 06:28:29;;;;;;;80.35;19.35;;;;;;;24.81;42.70;99880.00;4878758;29;20044;-91
2022/06/25 06:39:46;;;;;;;183.07;28.27;;;;;;;25.30;42.53;99912.09;4922951;28;20286;-87
2022/06/25 06:51:05;;;;;;;55.60;16.83;;;;;;;25.36;41.62;99874.09;4901563;29;20040;-93
2022/06/25 06:57:54;;;;;;;67.80;18.17;;;;;;;25.19;41.42;99830.91;4955971;28;20061;-91
2022/06/25 07:00:34;;;;;;;58.22;18.38;;;;;;;25.54;41.59;99871.31;4932540;28;20059;-88
2022/06/25 07:03:06;;;;;;;78.70;21.23;;;;;;;25.32;40.56;99825.72;4954958;23;20069;-87
2022/06/25 07:05:59;;;;;;;63.60;17.58;;;;;;;25.89;42.05;99906.88;4929062;28;20047;-90
2022/06/25 07:09:30;;;;;;;68.15;17.58;;;;;;;25.35;41.15;99824.91;4930710;28;20105;-91
2022/06/25 07:37:16;;;;;;;45.00;14.82;;;;;;;25.96;40.25;99848.06;5751954;23;20085;-90
2022/06/25 07:39:43;;;;;;;50.42;14.85;;;;;;;26.06;40.57;99859.63;4834697;29;20053;-89
2022/06/25 07:42:09;;;;;;;69.13;15.73;;;;;;;26.20;41.01;99884.81;4884523;29;20052;-89
2022/06/25 07:44:35;;;;;;;63.20;15.07;;;;;;;26.15;40.25;99883.22;4883215;29;20067;-88
2022/06/25 07:47:01;;;;;;;78.82;17.73;;;;;;;26.21;40.03;99889.22;4847473;29;20049;-82
2022/06/25 07:49:27;;;;;;;64.63;19.35;;;;;;;26.19;39.70;99869.19;4880078;29;20178;-86
2022/06/25 07:51:56;;;;;;;91.72;27.13;;;;;;;26.41;39.85;99886.72;4832141;29;20048;-87
2022/06/25 07:54:23;;;;;;;116.60;25.75;;;;;;;26.34;39.24;99878.34;4879625;29;20048;-90
2022/06/25 07:56:50;;;;;;;72.22;15.88;;;;;;;26.41;37.35;99883.94;4879002;29;20064;-91
2022/06/25 07:59:19;;;;;;;;;;;;;;;26.38;38.35;99887.53;4897511;29;20048;-88
2022/06/25 08:01:45;;;;;;;99.88;21.20;;;;;;;26.29;38.88;99871.19;4880309;29;19931;-88
2022/06/25 08:04:11;;;;;;;73.60;17.50;;;;;;;26.24;38.19;99861.16;4864130;29;20473;-88
2022/06/25 08:06:41;;;;;;;70.00;16.38;;;;;;;26.21;39.99;99858.38;4864565;29;20054;-88
2022/06/25 08:09:08;;;;;;;40.78;15.80;;;;;;;26.34;38.67;99869.94;4863011;29;20056;-87
2022/06/25 08:11:35;;;;;;;41.58;15.27;;;;;;;26.54;40.66;99881.50;4880373;29;20501;-86
2022/06/25 08:14:01;;;;;;;61.25;18.88;;;;;;;26.46;41.04;99867.50;4877970;29;20529;-91
2022/06/25 08:16:30;;;;;;;127.43;24.48;;;;;;;26.61;40.70;99878.66;4863883;29;20728;-91
2022/06/25 08:18:57;;;;;;;147.18;21.42;;;;;;;26.60;41.11;99868.66;4879279;29;20044;-87
2022/06/25 08:21:23;;;;;;;41.67;16.58;;;;;;;26.80;39.78;99886.56;4895564;29;20063;-87
2022/06/25 08:23:53;;;;;;;77.07;16.23;;;;;;;26.62;38.69;99846.59;4877968;29;20574;-88
2022/06/25 08:26:20;;;;;;;42.03;15.88;;;;;;;26.81;39.57;99856.50;4879428;29;20048;-90
2022/06/25 08:28:46;;;;;;;77.25;17.33;;;;;;;26.72;38.30;99831.72;4878638;29;20068;-89
2022/06/25 08:31:12;;;;;;;;;;;;;;;26.96;39.21;99868.47;4896294;29;20120;-90
2022/06/25 08:33:38;;;;;;;;;;;;;;;26.98;39.13;99872.44;4891952;29;20353;-88
2022/06/25 08:36:04;;;;;;;;;;;;;;;27.00;39.71;99875.63;4894609;29;19966;-89
2022/06/25 08:38:30;;;;;;;;;;;;;;;27.06;40.32;99873.19;4871758;29;19977;-90
2022/06/25 08:41:04;;;;;;;86.38;16.50;;;;;;;27.01;40.49;99846.34;4885005;29;19930;-90
2022/06/25 08:43:30;;;;;;;101.78;20.13;;;;;;;27.05;38.97;99851.94;4892293;29;20174;-88
2022/06/25 08:46:08;;;;;;;141.13;18.95;;;;;;;27.24;39.80;99873.09;4862117;29;20048;-89
2022/06/25 08:52:12;;;;;;;40.80;14.82;;;;;;;27.24;38.56;99868.25;4883413;29;20131;-89
2022/06/25 08:54:54;;;;;;;82.68;19.73;;;;;;;27.02;39.29;99833.13;4882972;29;20048;-92
2022/06/25 08:57:21;;;;;;;100.50;22.98;;;;;;;27.05;38.20;99821.88;4880878;29;20072;-89
2022/06/25 08:59:48;;;;;;;79.05;20.98;;;;;;;27.27;37.85;99853.41;4881810;29;20391;-91
2022/06/25 09:02:14;;;;;;;212.25;53.50;;;;;;;27.24;39.09;99837.38;4850476;29;20466;-91
2022/06/25 09:04:40;;;;;;;66.55;18.60;;;;;;;27.40;38.36;99840.44;4864823;29;20108;-89
2022/06/25 09:07:12;;;;;;;120.20;29.63;;;;;;;27.56;37.85;99853.16;4850764;29;20160;-90
2022/06/25 09:09:39;;;;;;;61.72;20.13;;;;;;;27.73;39.15;99860.59;4881339;29;20040;-89
2022/06/25 09:12:10;;;;;;;78.07;19.27;;;;;;;27.82;37.80;99851.75;4867114;29;20529;-83
2022/06/25 09:14:37;;;;;;;38.33;14.73;;;;;;;27.87;37.51;99856.88;4898812;29;20052;-84
2022/06/25 09:17:12;;;;;;;93.70;16.65;;;;;;;27.81;37.61;99858.53;4898999;29;20048;-84
2022/06/25 09:19:40;;;;;;;80.10;19.40;;;;;;;27.70;36.90;99841.78;4855981;29;20082;-84
2022/06/25 09:22:15;;;;;;;73.07;17.08;;;;;;;27.86;38.55;99861.72;4846986;29;20064;-84
2022/06/25 09:24:49;;;;;;;66.47;15.90;;;;;;;27.93;36.41;99857.22;4879712;29;20518;-86
2022/06/25 09:27:36;;;;;;;53.05;15.23;;;;;;;27.94;38.37;99828.69;4878272;29;20400;-85
2022/06/25 09:30:14;;;;;;;79.95;14.57;;;;;;;28.24;36.20;99852.44;4864264;29;20037;-87
2022/06/25 09:32:46;;;;;;;28.15;14.23;;;;;;;28.22;35.85;99847.25;4837136;29;20115;-85
2022/06/25 09:35:30;;;;;;;81.72;17.70;;;;;;;28.20;36.92;99841.25;4888124;29;20059;-85
2022/06/25 09:38:03;;;;;;;66.47;16.55;;;;;;;28.09;37.06;99849.03;4850040;29;20458;-84
2022/06/25 09:40:29;;;;;;;56.03;14.63;;;;;;;28.06;35.15;99850.66;4873496;29;20454;-85
2022/06/25 09:42:56;;;;;;;;;;;;;;;28.05;35.35;99851.88;4897449;29;20041;-85
2022/06/25 09:45:23;;;;;;;75.22;16.77;;;;;;;27.79;35.88;99807.63;4862864;29;19930;-85
2022/06/25 09:47:49;;;;;;;52.13;14.20;;;;;;;28.05;34.83;99859.50;4896295;29;20111;-86
2022/06/25 09:50:19;;;;;;;44.08;13.60;;;;;;;27.76;34.67;99830.91;4861070;29;20033;-87
2022/06/25 09:52:59;;;;;;;36.58;14.45;;;;;;;27.96;36.22;99845.16;4887664;29;20044;-87
2022/06/25 09:55:32;;;;;;;41.00;14.02;;;;;;;27.92;38.27;99831.16;4850563;29;20044;-87
2022/06/25 09:58:01;;;;;;;70.72;15.70;;;;;;;28.09;38.66;99849.03;4897536;29;20095;-86
2022/06/25 10:00:29;;;;;;;83.60;14.82;;;;;;;28.17;38.25;99830.03;4850742;29;20044;-87
2022/06/25 10:02:58;;;;;;;58.38;15.35;;;;;;;28.39;36.88;99845.47;4898144;29;20036;-87
2022/06/25 10:05:35;;;;;;;21.75;11.48;;;;;;;28.17;34.56;99830.84;4898091;29;20545;-87
2022/06/25 10:08:11;;;;;;;53.33;12.98;;;;;;;28.02;34.78;99807.75;4861530;29;20049;-87
2022/06/25 10:10:40;;;;;;;30.27;11.38;;;;;;;28.04;34.99;99794.03;4860155;29;20049;-86
2022/06/25 10:13:07;;;;;;;36.63;12.65;;;;;;;28.22;34.26;99807.91;4876320;29;20507;-87
2022/06/25 10:15:34;;;;;;;68.72;14.27;;;;;;;28.39;36.43;99811.72;4879222;29;20101;-94
2022/06/25 10:18:03;;;;;;;46.88;12.50;;;;;;;28.73;34.74;99828.50;4845672;29;20054;-95
2022/06/25 10:20:31;;;;;;;43.33;12.55;;;;;;;28.95;34.47;99856.34;4858823;29;20094;-89
2022/06/25 10:22:59;;;;;;;39.15;12.80;;;;;;;28.86;33.51;99853.25;4844048;29;20104;-89
2022/06/25 10:25:27;;;;;;;36.22;12.65;;;;;;;28.41;34.69;99812.09;4859760;29;20060;-89
2022/06/25 10:28:08;;;;;;;25.33;10.90;;;;;;;28.20;33.95;99827.19;4845520;29;20049;-90
2022/06/25 10:30:47;;;;;;;24.73;10.45;;;;;;;28.05;33.83;99848.28;4861505;29;20121;-88
2022/06/25 10:33:21;;;;;;;22.00;10.85;;;;;;;28.07;34.15;99849.44;4845713;29;20050;-88
2022/06/25 10:35:52;;;;;;;31.50;11.40;;;;;;;28.13;35.15;99841.34;4859293;29;20060;-91
2022/06/25 10:38:25;;;;;;;28.15;11.93;;;;;;;27.91;34.23;99818.28;4850038;29;20060;-90
2022/06/25 10:42:58;;;;;;;46.03;12.85;;;;;;;27.93;37.11;99831.94;4872196;29;20416;-88
2022/06/25 10:43:54;;;;;;;46.22;14.80;;;;;;;28.14;36.09;99826.06;4881649;29;20076;-88
2022/06/25 10:46:22;;;;;;;44.65;13.18;;;;;;;28.40;35.98;99813.31;4885815;29;20044;-87
2022/06/25 10:49:06;;;;;;;28.67;12.38;;;;;;;28.63;34.93;99835.09;4881358;29;20037;-87
2022/06/25 10:51:48;;;;;;;42.90;12.32;;;;;;;28.55;33.38;99799.84;4899659;29;20041;-89
2022/06/25 10:54:26;;;;;;;53.33;13.80;;;;;;;28.90;34.63;99817.41;4880600;29;20462;-88
2022/06/25 10:56:55;;;;;;;47.78;11.70;;;;;;;28.94;33.52;99795.63;4880605;29;20053;-88
2022/06/25 10:59:34;;;;;;;51.83;12.38;;;;;;;29.16;32.75;99824.25;4868460;29;20536;-88
2022/06/25 11:02:08;;;;;;;33.20;12.10;;;;;;;28.96;34.94;99832.59;4885047;29;20055;-96
2022/06/25 11:04:38;;;;;;;31.08;11.25;;;;;;;28.70;34.46;99825.75;4875140;29;20055;-89
2022/06/25 11:07:11;;;;;;;68.82;14.73;;;;;;;28.45;34.95;99818.47;4892381;29;20052;-92
2022/06/25 11:10:01;;;;;;;52.70;12.10;;;;;;;28.29;34.96;99784.50;4870919;29;20049;-88
2022/06/25 11:12:34;;;;;;;67.82;14.85;;;;;;;28.46;36.21;99774.25;4884753;29;20192;-88
2022/06/25 11:15:07;;;;;;;46.38;14.18;;;;;;;28.37;34.17;99757.88;4900905;29;20048;-88
2022/06/25 11:17:35;;;;;;;49.25;13.85;;;;;;;28.86;34.28;99827.94;4902554;29;20048;-88
2022/06/25 11:20:04;;;;;;;48.92;12.82;;;;;;;28.68;35.00;99834.63;4871103;29;20044;-88
2022/06/25 11:23:02;;;;;;;30.55;11.32;;;;;;;28.50;33.14;99822.81;4879145;29;20533;-91
2022/06/25 11:28:48;;;;;;;99.15;14.05;;;;;;;28.20;35.15;99778.59;4877327;29;20052;-89
2022/06/25 11:31:26;;;;;;;51.53;12.45;;;;;;;28.71;34.02;99808.47;4864958;29;20080;-92
2022/06/25 11:34:18;;;;;;;56.58;12.35;;;;;;;29.11;34.48;99819.94;4871832;29;20053;-95
2022/06/25 11:37:08;;;;;;;41.85;12.70;;;;;;;28.80;34.90;99800.25;4889971;29;20417;-90
2022/06/25 11:39:35;;;;;;;73.13;15.95;;;;;;;28.99;32.55;99812.03;4886843;29;20036;-90
2022/06/25 11:42:10;;;;;;;44.05;11.85;;;;;;;29.20;32.60;99814.53;4861607;29;20195;-93
2022/06/25 11:44:47;;;;;;;71.05;11.25;;;;;;;29.37;34.07;99809.00;4889662;29;20479;-89
2022/06/25 11:47:47;;;;;;;69.53;14.32;;;;;;;29.56;34.29;99833.63;4871263;29;20040;-90
2022/06/25 11:50:17;;;;;;;83.00;13.73;;;;;;;29.77;32.89;99823.22;4869200;29;20045;-90
2022/06/25 11:52:45;;;;;;;72.97;12.70;;;;;;;29.66;33.91;99790.41;4904995;29;20041;-90
2022/06/25 11:55:17;;;;;;;54.67;12.23;;;;;;;29.80;32.32;99799.81;4891138;29;20053;-89
2022/06/25 11:57:46;;;;;;;60.47;12.20;;;;;;;29.75;33.68;99792.66;4871928;29;20048;-96
2022/06/25 12:00:18;;;;;;;77.60;14.63;;;;;;;29.63;33.08;99757.44;4889134;29;20049;-96
2022/06/25 12:02:44;;;;;;;119.10;15.98;;;;;;;29.96;31.82;99802.69;4876793;29;20048;-89
2022/06/25 12:05:13;;;;;;;68.05;15.20;;;;;;;29.87;31.17;99800.47;4860385;29;20067;-88
2022/06/25 12:08:04;;;;;;;40.75;11.88;;;;;;;30.14;30.90;99822.09;4909673;29;20064;-90
2022/06/25 12:10:51;;;;;;;60.05;12.30;;;;;;;30.07;33.44;99779.94;4825786;29;20051;-89
2022/06/25 12:13:22;;;;;;;39.10;13.18;;;;;;;30.23;33.00;99810.25;4805754;29;20038;-88
2022/06/25 12:16:03;;;;;;;69.47;13.43;;;;;;;30.22;34.78;99789.69;4835125;29;20046;-94
2022/06/25 12:18:43;;;;;;;66.43;12.50;;;;;;;30.45;33.78;99796.47;4833896;29;20049;-93
2022/06/25 12:21:30;;;;;;;177.65;21.83;;;;;;;30.33;30.11;99762.06;4803710;29;20080;-89
2022/06/25 12:24:04;;;;;;;83.13;16.33;;;;;;;30.70;30.09;99791.06;4787374;29;20054;-88
2022/06/25 12:26:35;;;;;;;58.75;14.27;;;;;;;30.88;31.86;99802.72;4793041;29;20046;-88
2022/06/25 12:29:13;;;;;;;37.50;11.48;;;;;;;30.85;30.62;99777.41;4778046;29;20054;-87
2022/06/25 12:31:41;;;;;;;86.15;15.07;;;;;;;30.66;31.48;99782.69;4793001;29;20162;-88
2022/06/25 12:34:08;;;;;;;163.63;19.95;;;;;;;30.57;29.95;99782.47;4808330;29;20054;-88
2022/06/25 12:36:39;;;;;;;162.07;16.63;;;;;;;30.45;30.81;99783.16;4808006;29;20495;-89
2022/06/25 12:39:26;;;;;;;48.13;13.00;;;;;;;30.76;31.23;99799.78;4792738;29;20046;-89
2022/06/25 12:41:54;;;;;;;69.82;14.98;;;;;;;30.96;30.47;99794.91;4793436;29;20051;-89
2022/06/25 12:44:20;;;;;;;218.73;22.23;;;;;;;30.90;30.78;99751.50;4826379;29;20045;-90
2022/06/25 12:46:59;;;;;;;;;;;;;;;31.25;31.68;99791.34;4858640;29;20087;-91
2022/06/25 12:49:54;;;;;;;76.20;12.68;;;;;;;31.45;32.21;99786.41;4894316;29;19958;-90
2022/06/25 12:52:39;;;;;;;58.42;12.18;;;;;;;31.36;31.87;99772.13;4866277;29;20056;-89
2022/06/25 12:55:38;;;;;;;73.72;14.23;;;;;;;30.94;29.23;99711.88;4898237;29;20040;-90
2022/06/25 12:58:06;;;;;;;65.15;15.07;;;;;;;31.14;29.97;99788.81;4880088;29;20045;-90
2022/06/25 13:00:34;;;;;;;65.03;13.13;;;;;;;31.32;31.93;99800.44;4849541;29;20072;-91
2022/06/25 13:03:05;;;;;;;88.50;13.18;;;;;;;31.16;30.95;99768.56;4899591;29;20040;-88
2022/06/25 13:05:57;;;;;;;49.40;12.45;;;;;;;30.88;30.30;99753.94;4901981;29;20514;-90
2022/06/25 13:08:24;;;;;;;140.57;18.30;;;;;;;30.82;30.87;99733.13;4829780;29;20129;-90
2022/06/25 13:10:52;;;;;;;184.23;18.80;;;;;;;30.60;31.13;99747.75;4815422;29;20171;-89
2022/06/25 13:13:18;;;;;;;81.95;16.10;;;;;;;30.60;32.19;99784.44;4835899;29;20850;-88
2022/06/25 13:15:45;;;;;;;59.25;12.60;;;;;;;30.53;31.86;99789.41;4837794;29;20066;-89
2022/06/25 13:18:11;;;;;;;60.80;13.27;;;;;;;30.43;29.53;99730.00;4828849;29;20087;-89
2022/06/25 13:20:37;;;;;;;;;;;;;;;31.08;30.51;99782.88;4823492;29;20050;-91
2022/06/25 13:23:03;;;;;;;558.30;67.68;;;;;;;30.84;30.23;99753.25;4807703;29;20513;-90
2022/06/25 13:25:38;;;;;;;99.53;15.98;;;;;;;30.63;28.23;99754.53;4823309;29;20460;-91
2022/06/25 13:28:30;;;;;;;82.73;14.47;;;;;;;30.93;28.85;99784.50;4822966;29;20045;-91
2022/06/25 13:30:56;;;;;;;56.70;14.43;;;;;;;30.83;28.44;99751.69;4795790;29;20034;-89
2022/06/25 13:33:22;;;;;;;114.78;16.45;;;;;;;31.19;28.73;99784.63;4806379;29;20065;-90
2022/06/25 13:35:48;;;;;;;;;;;;;;;31.41;29.52;99780.06;4822026;29;20083;-91
2022/06/25 13:38:40;;;;;;;158.65;19.52;;;;;;;31.27;28.74;99754.97;4822148;29;19955;-91
2022/06/25 13:41:06;;;;;;;212.50;21.90;;;;;;;31.43;27.42;99777.59;4822234;29;20087;-89
2022/06/25 13:43:32;;;;;;;65.63;13.45;;;;;;;31.14;27.17;99766.22;4822036;29;20053;-90
2022/06/25 13:45:58;;;;;;;48.08;12.73;;;;;;;31.04;27.68;99770.88;4861174;29;20048;-90
2022/06/25 13:52:02;;;;;;;46.60;13.13;;;;;;;30.66;28.27;99782.69;4878544;23;20049;-95
2022/06/25 13:58:38;;;;;;;133.40;21.40;;;;;;;30.59;28.81;99720.75;4862245;29;20050;-95
2022/06/25 14:01:19;;;;;;;51.30;12.30;;;;;;;30.90;28.13;99748.66;4847299;29;20049;-95
2022/06/25 14:03:46;;;;;;;78.45;15.25;;;;;;;30.89;29.33;99721.66;4864482;29;20045;-95
2022/06/25 14:06:36;;;;;;;73.38;13.32;;;;;;;31.35;29.43;99774.13;4886264;29;20138;-94
2022/06/25 14:09:03;;;;;;;88.05;14.27;;;;;;;31.19;28.22;99753.56;4883597;29;20044;-92
2022/06/25 14:11:37;;;;;;;61.97;13.40;;;;;;;31.27;28.91;99758.59;4852696;29;20055;-95
2022/06/25 14:14:07;;;;;;;106.28;18.17;;;;;;;31.22;28.30;99732.91;4883059;29;20049;-94
2022/06/25 14:16:37;;;;;;;154.98;22.33;;;;;;;31.19;29.65;99719.69;4853816;23;20594;-93
2022/06/25 14:19:29;;;;;;;103.63;17.50;;;;;;;31.44;27.34;99764.25;4833365;29;20041;-94
2022/06/25 14:21:56;;;;;;;73.00;14.93;;;;;;;31.02;27.89;99725.34;4842803;23;20053;-95
2022/06/25 14:27:58;;;;;;;56.40;11.55;;;;;;;30.55;28.65;99713.59;4861685;29;20507;-93
2022/06/25 14:30:39;;;;;;;36.97;11.32;;;;;;;30.48;28.52;99720.22;4829845;29;20045;-90
2022/06/25 14:33:05;;;;;;;;;;;;;;;30.79;28.34;99760.19;4845796;29;20129;-90
2022/06/25 14:35:32;;;;;;;84.32;15.13;;;;;;;30.72;28.45;99720.03;4865489;29;19924;-92
2022/06/25 14:43:13;;;;;;;178.60;21.33;;;;;;;31.09;29.05;99767.53;4833997;29;20042;-91
2022/06/25 14:45:39;;;;;;;88.97;15.20;;;;;;;31.02;29.91;99730.19;4864439;29;20140;-92
2022/06/25 14:48:19;;;;;;;183.65;25.55;;;;;;;30.60;30.07;99735.66;4849053;29;20097;-91
2022/06/25 14:50:46;;;;;;;408.23;41.10;;;;;;;30.86;30.98;99751.59;4864310;29;20056;-90
2022/06/25 14:53:12;;;;;;;300.65;33.38;;;;;;;30.94;31.43;99723.16;4878022;29;20125;-91
2022/06/25 14:56:16;;;;;;;242.48;27.65;;;;;;;31.41;30.85;99762.31;4829193;29;20054;-89
2022/06/25 14:58:42;;;;;;;212.52;24.85;;;;;;;31.25;29.27;99727.16;4845539;29;20054;-91
2022/06/25 15:01:09;;;;;;;235.70;33.05;;;;;;;31.56;29.15;99763.53;4853367;29;20041;-92
2022/06/25 15:03:42;;;;;;;77.43;16.00;;;;;;;31.21;30.53;99703.09;4846116;29;20052;-90
2022/06/25 15:06:08;;;;;;;123.97;17.70;;;;;;;31.50;30.14;99735.00;4845231;29;20053;-91
2022/06/25 15:08:34;;;;;;;;;;;;;;;31.65;28.75;99757.19;4830516;29;20097;-90
2022/06/25 15:11:00;;;;;;;42.17;12.35;;;;;;;31.49;30.50;99772.16;4860849;29;19924;-94
2022/06/25 15:13:28;;;;;;;;;;;;;;;31.43;31.06;99765.50;4845515;29;20060;-90
2022/06/25 15:15:54;;;;;;;149.57;18.95;;;;;;;31.21;31.15;99732.13;4829064;29;20282;-90
2022/06/25 15:18:20;;;;;;;171.45;23.10;;;;;;;31.27;31.88;99735.22;4829100;29;20110;-91
2022/06/25 15:20:47;;;;;;;261.48;36.10;;;;;;;31.41;30.04;99742.53;4844887;29;20053;-91
2022/06/25 15:23:20;;;;;;;106.95;18.23;;;;;;;31.53;31.09;99755.94;4863899;29;20037;-90